createdAt,value
2019-03-01T00:00:15.284Z,4.3
2019-03-01T00:03:15.158Z,4.3
2019-03-01T00:06:15.199Z,4.3
2019-03-01T00:09:15.061Z,4.3
2019-03-01T00:12:15.177Z,4.3
2019-03-01T00:15:15.128Z,4.3
2019-03-01T00:18:15.215Z,4.3
2019-03-01T00:21:15.197Z,4.3
2019-03-01T00:24:15.508Z,4.3
2019-03-01T00:27:15.284Z,4.3
2019-03-01T00:30:15.286Z,4.3
2019-03-01T00:33:14.897Z,4.3
2019-03-01T00:36:15.431Z,4.3
2019-03-01T00:39:15.041Z,4.3
2019-03-01T00:42:15.168Z,4.3
2019-03-01T00:45:15.250Z,4.3
2019-03-01T00:48:15.178Z,4.3
2019-03-01T00:51:15.359Z,4.3
2019-03-01T00:54:15.049Z,4.3
2019-03-01T00:57:15.168Z,4.3
2019-03-01T01:00:15.089Z,4.3
2019-03-01T01:03:15.056Z,4.3
2019-03-01T01:06:15.021Z,4.3
2019-03-01T01:09:15.082Z,4.3
2019-03-01T01:12:15.232Z,4.3
2019-03-01T01:15:15.122Z,4.3
2019-03-01T01:18:15.169Z,4.3
2019-03-01T01:21:15.059Z,4.3
2019-03-01T01:24:15.187Z,4.3
2019-03-01T01:27:15.094Z,4.3
2019-03-01T01:30:15.576Z,4.3
2019-03-01T01:33:15.159Z,4.3
2019-03-01T01:36:15.191Z,4.3
2019-03-01T01:39:14.908Z,4.3
2019-03-01T01:42:15.002Z,4.3
2019-03-01T01:45:15.007Z,4.3
2019-03-01T01:48:14.923Z,4.3
2019-03-01T01:51:14.884Z,4.3
2019-03-01T01:54:15.028Z,4.3
2019-03-01T01:57:15.026Z,4.3
2019-03-01T02:00:14.959Z,4.2
2019-03-01T02:03:14.982Z,4.2
2019-03-01T02:06:15.019Z,4.2
2019-03-01T02:09:15.030Z,4.2
2019-03-01T02:12:15.021Z,4.2
2019-03-01T02:15:15.093Z,4.2
2019-03-01T02:18:15.081Z,4.2
2019-03-01T02:21:15.093Z,4.2
2019-03-01T02:24:15.101Z,4.2
2019-03-01T02:27:15.112Z,4.2
2019-03-01T02:30:15.036Z,4.2
2019-03-01T02:33:14.981Z,4.2
2019-03-01T02:36:14.956Z,4.2
2019-03-01T02:39:14.981Z,4.2
2019-03-01T02:42:14.996Z,4.2
2019-03-01T02:45:15.052Z,4.2
2019-03-01T02:48:15.219Z,4.2
2019-03-01T02:51:15.048Z,4.2
2019-03-01T02:54:15.097Z,4.2
2019-03-01T02:57:14.968Z,4.2
2019-03-01T03:00:15.084Z,4.1
2019-03-01T03:03:14.985Z,4.1
2019-03-01T03:06:15.039Z,4.1
2019-03-01T03:09:15.308Z,4.1
2019-03-01T03:12:15.173Z,4.1
2019-03-01T03:15:15.096Z,4.1
2019-03-01T03:18:15.192Z,4.1
2019-03-01T03:21:15.249Z,4.1
2019-03-01T03:24:15.129Z,4.1
2019-03-01T03:27:15.163Z,4.1
2019-03-01T03:30:15.035Z,4.1
2019-03-01T03:33:15.368Z,4.1
2019-03-01T03:36:15.062Z,4.1
2019-03-01T03:39:14.931Z,4.1
2019-03-01T03:42:15.291Z,4.1
2019-03-01T03:45:15.040Z,4.1
2019-03-01T03:48:15.136Z,4.1
2019-03-01T03:51:15.071Z,4.1
2019-03-01T03:54:15.181Z,4.1
2019-03-01T03:57:15.123Z,4.1
2019-03-01T04:00:15.227Z,4.1
2019-03-01T04:03:15.430Z,4.1
2019-03-01T04:06:15.302Z,4.1
2019-03-01T04:09:14.970Z,4.1
2019-03-01T04:12:15.076Z,4.1
2019-03-01T04:15:15.209Z,4.1
2019-03-01T04:18:15.028Z,4.1
2019-03-01T04:21:15.024Z,4.1
2019-03-01T04:24:15.174Z,4.1
2019-03-01T04:27:15.118Z,4.1
2019-03-01T04:30:15.217Z,4.1
2019-03-01T04:33:15.025Z,4.1
2019-03-01T04:36:14.990Z,4.1
2019-03-01T04:39:15.025Z,4.1
2019-03-01T04:42:14.988Z,4.1
2019-03-01T04:45:15.094Z,4.1
2019-03-01T04:48:15.025Z,4.1
2019-03-01T04:51:15.035Z,4.1
2019-03-01T04:54:15.023Z,4.1
2019-03-01T04:57:15.082Z,4.1
2019-03-01T05:00:15.000Z,3.9
2019-03-01T05:03:15.095Z,3.9
2019-03-01T05:06:14.777Z,3.9
2019-03-01T05:09:14.813Z,3.9
2019-03-01T05:12:14.854Z,3.9
2019-03-01T05:15:14.960Z,3.9
2019-03-01T05:18:14.814Z,3.9
2019-03-01T05:21:14.889Z,3.9
2019-03-01T05:24:14.880Z,3.9
2019-03-01T05:27:14.883Z,3.9
2019-03-01T05:30:14.938Z,3.9
2019-03-01T05:33:14.977Z,3.9
2019-03-01T05:36:15.016Z,3.9
2019-03-01T05:39:14.985Z,3.9
2019-03-01T05:42:14.968Z,3.9
2019-03-01T05:45:15.033Z,3.9
2019-03-01T05:48:14.968Z,3.9
2019-03-01T05:51:14.858Z,3.9
2019-03-01T05:54:14.894Z,3.9
2019-03-01T05:57:14.846Z,3.9
2019-03-01T06:00:14.928Z,3.8
2019-03-01T06:03:15.088Z,3.8
2019-03-01T06:06:14.850Z,3.8
2019-03-01T06:09:14.918Z,3.8
2019-03-01T06:12:14.960Z,3.8
2019-03-01T06:15:14.990Z,3.8
2019-03-01T06:18:14.945Z,3.8
2019-03-01T06:21:15.000Z,3.8
2019-03-01T06:24:15.301Z,3.8
2019-03-01T06:27:16.821Z,3.8
2019-03-01T06:30:15.064Z,3.8
2019-03-01T06:33:15.021Z,3.8
2019-03-01T06:36:14.941Z,3.8
2019-03-01T06:39:15.093Z,3.8
2019-03-01T06:42:15.013Z,3.8
2019-03-01T06:45:15.115Z,3.8
2019-03-01T06:48:15.444Z,3.8
2019-03-01T06:51:15.040Z,3.8
2019-03-01T06:54:14.785Z,3.8
2019-03-01T06:57:14.733Z,3.8
2019-03-01T07:00:14.781Z,3.7
2019-03-01T07:03:14.781Z,3.7
2019-03-01T07:06:14.730Z,3.7
2019-03-01T07:09:14.905Z,3.7
2019-03-01T07:12:14.954Z,3.7
2019-03-01T07:15:14.966Z,3.7
2019-03-01T07:18:14.913Z,3.7
2019-03-01T07:21:14.800Z,3.7
2019-03-01T07:24:16.555Z,3.7
2019-03-01T07:27:14.971Z,3.7
2019-03-01T07:30:14.883Z,3.7
2019-03-01T07:33:14.849Z,3.7
2019-03-01T07:36:14.796Z,3.7
2019-03-01T07:39:14.827Z,3.7
2019-03-01T07:42:14.899Z,3.7
2019-03-01T07:45:14.818Z,3.7
2019-03-01T07:48:14.852Z,3.7
2019-03-01T07:51:14.876Z,3.7
2019-03-01T07:54:18.364Z,3.7
2019-03-01T07:57:15.961Z,3.7
2019-03-01T08:00:15.272Z,3.5
2019-03-01T08:03:16.285Z,3.5
2019-03-01T08:06:14.811Z,3.5
2019-03-01T08:09:14.750Z,3.5
2019-03-01T08:12:15.052Z,3.5
2019-03-01T08:15:14.769Z,3.5
2019-03-01T08:18:14.898Z,3.5
2019-03-01T08:21:15.370Z,3.5
2019-03-01T08:24:14.760Z,3.5
2019-03-01T08:27:14.772Z,3.5
2019-03-01T08:30:14.810Z,3.5
2019-03-01T08:33:15.060Z,3.5
2019-03-01T08:36:14.870Z,3.5
2019-03-01T08:39:14.779Z,3.5
2019-03-01T08:42:14.722Z,3.5
2019-03-01T08:45:14.768Z,3.5
2019-03-01T08:48:14.756Z,3.5
2019-03-01T08:51:14.734Z,3.5
2019-03-01T08:54:14.889Z,3.5
2019-03-01T08:57:14.716Z,3.5
2019-03-01T09:00:14.740Z,3.4
2019-03-01T09:03:23.407Z,3.4
2019-03-01T09:06:14.701Z,3.4
2019-03-01T09:09:22.255Z,3.4
2019-03-01T09:12:14.961Z,3.4
2019-03-01T09:15:14.975Z,3.4
2019-03-01T09:18:15.707Z,3.4
2019-03-01T09:21:14.924Z,3.4
2019-03-01T09:24:14.931Z,3.4
2019-03-01T09:27:14.878Z,3.4
2019-03-01T09:30:14.979Z,3.4
2019-03-01T09:33:23.324Z,3.4
2019-03-01T09:36:21.842Z,3.4
2019-03-01T09:39:19.522Z,3.4
2019-03-01T09:42:16.864Z,3.4
2019-03-01T09:45:14.943Z,3.4
2019-03-01T09:48:14.850Z,3.4
2019-03-01T09:51:16.370Z,3.4
2019-03-01T09:54:14.882Z,3.4
2019-03-01T09:57:16.778Z,3.4
2019-03-01T10:00:14.894Z,3.4
2019-03-01T10:03:14.871Z,3.4
2019-03-01T10:06:14.866Z,3.4
2019-03-01T10:09:14.852Z,3.4
2019-03-01T10:12:14.776Z,3.4
2019-03-01T10:15:14.811Z,3.4
2019-03-01T10:18:14.845Z,3.4
2019-03-01T10:21:14.885Z,3.4
2019-03-01T10:24:15.238Z,3.4
2019-03-01T10:27:14.886Z,3.4
2019-03-01T10:30:14.914Z,3.4
2019-03-01T10:33:14.907Z,3.4
2019-03-01T10:36:15.061Z,3.4
2019-03-01T10:39:14.925Z,3.4
2019-03-01T10:42:14.986Z,3.4
2019-03-01T10:45:14.936Z,3.4
2019-03-01T10:48:14.835Z,3.4
2019-03-01T10:51:15.056Z,3.4
2019-03-01T10:54:14.808Z,3.4
2019-03-01T10:57:16.158Z,3.4
2019-03-01T11:00:15.006Z,3.3
2019-03-01T11:03:14.875Z,3.3
2019-03-01T11:06:14.999Z,3.3
2019-03-01T11:09:14.855Z,3.3
2019-03-01T11:12:14.873Z,3.3
2019-03-01T11:15:14.946Z,3.3
2019-03-01T11:18:14.915Z,3.3
2019-03-01T11:21:14.916Z,3.3
2019-03-01T11:24:14.876Z,3.3
2019-03-01T11:27:14.903Z,3.3
2019-03-01T11:30:15.037Z,3.3
2019-03-01T11:33:14.947Z,3.3
2019-03-01T11:36:14.739Z,3.3
2019-03-01T11:39:14.642Z,3.3
2019-03-01T11:42:14.691Z,3.3
2019-03-01T11:45:14.730Z,3.3
2019-03-01T11:48:14.654Z,3.3
2019-03-01T11:51:14.613Z,3.3
2019-03-01T11:54:14.680Z,3.3
2019-03-01T11:57:14.669Z,3.3
2019-03-01T12:00:14.723Z,3.3
2019-03-01T12:03:15.896Z,3.3
2019-03-01T12:06:14.958Z,3.3
2019-03-01T12:09:14.943Z,3.3
2019-03-01T12:12:14.683Z,3.3
2019-03-01T12:15:15.060Z,3.3
2019-03-01T12:18:14.834Z,3.3
2019-03-01T12:21:14.836Z,3.3
2019-03-01T12:24:14.777Z,3.3
2019-03-01T12:27:14.699Z,3.3
2019-03-01T12:30:15.138Z,3.3
2019-03-01T12:33:14.828Z,3.3
2019-03-01T12:36:14.806Z,3.3
2019-03-01T12:39:14.704Z,3.3
2019-03-01T12:42:14.809Z,3.3
2019-03-01T12:45:14.643Z,3.3
2019-03-01T12:48:14.694Z,3.3
2019-03-01T12:51:14.653Z,3.3
2019-03-01T12:54:14.675Z,3.3
2019-03-01T12:57:14.721Z,3.3
2019-03-01T13:00:14.759Z,3.3
2019-03-01T13:03:14.652Z,3.3
2019-03-01T13:06:14.654Z,3.3
2019-03-01T13:09:14.645Z,3.3
2019-03-01T13:12:14.644Z,3.3
2019-03-01T13:15:14.959Z,3.3
2019-03-01T13:18:17.217Z,3.3
2019-03-01T13:21:14.929Z,3.3
2019-03-01T13:24:17.661Z,3.3
2019-03-01T13:27:18.464Z,3.3
2019-03-01T13:30:14.608Z,3.3
2019-03-01T13:33:14.661Z,3.3
2019-03-01T13:36:14.793Z,3.3
2019-03-01T13:39:14.777Z,3.3
2019-03-01T13:42:15.068Z,3.3
2019-03-01T13:45:16.065Z,3.3
2019-03-01T13:48:20.078Z,3.3
2019-03-01T13:51:18.269Z,3.3
2019-03-01T13:54:14.768Z,3.3
2019-03-01T13:57:14.718Z,3.3
2019-03-01T14:00:14.655Z,3.2
2019-03-01T14:03:15.013Z,3.2
2019-03-01T14:06:16.388Z,3.2
2019-03-01T14:09:14.794Z,3.2
2019-03-01T14:12:14.750Z,3.2
2019-03-01T14:15:14.933Z,3.2
2019-03-01T14:18:14.738Z,3.2
2019-03-01T14:21:14.713Z,3.2
2019-03-01T14:24:14.741Z,3.2
2019-03-01T14:27:14.628Z,3.2
2019-03-01T14:30:14.528Z,3.2
2019-03-01T14:33:14.786Z,3.2
2019-03-01T14:36:14.772Z,3.2
2019-03-01T14:39:14.773Z,3.2
2019-03-01T14:42:14.561Z,3.2
2019-03-01T14:45:14.601Z,3.2
2019-03-01T14:48:14.788Z,3.2
2019-03-01T14:51:14.701Z,3.2
2019-03-01T14:54:14.790Z,3.2
2019-03-01T14:57:14.844Z,3.2
2019-03-01T15:00:14.567Z,3.1
2019-03-01T15:03:17.865Z,3.1
2019-03-01T15:06:20.411Z,3.1
2019-03-01T15:09:21.399Z,3.1
2019-03-01T15:12:21.476Z,3.1
2019-03-01T15:15:14.749Z,3.1
2019-03-01T15:18:14.767Z,3.1
2019-03-01T15:21:14.781Z,3.1
2019-03-01T15:24:14.809Z,3.1
2019-03-01T15:27:14.719Z,3.1
2019-03-01T15:30:14.678Z,3.1
2019-03-01T15:33:14.678Z,3.1
2019-03-01T15:36:19.627Z,3.1
2019-03-01T15:39:21.017Z,3.1
2019-03-01T15:42:21.455Z,3.1
2019-03-01T15:45:14.671Z,3.1
2019-03-01T15:48:14.689Z,3.1
2019-03-01T15:51:14.809Z,3.1
2019-03-01T15:54:14.622Z,3.1
2019-03-01T15:57:19.908Z,3.1
2019-03-01T16:00:14.637Z,3.1
2019-03-01T16:03:14.631Z,3.1
2019-03-01T16:06:22.553Z,3.1
2019-03-01T16:09:14.642Z,3.1
2019-03-01T16:12:14.629Z,3.1
2019-03-01T16:15:14.708Z,3.1
2019-03-01T16:18:14.761Z,3.1
2019-03-01T16:21:14.739Z,3.1
2019-03-01T16:24:14.747Z,3.1
2019-03-01T16:27:15.717Z,3.1
2019-03-01T16:30:18.721Z,3.1
2019-03-01T16:33:14.593Z,3.1
2019-03-01T16:36:14.606Z,3.1
2019-03-01T16:39:16.929Z,3.1
2019-03-01T16:42:19.197Z,3.1
2019-03-01T16:45:22.284Z,3.1
2019-03-01T16:48:18.106Z,3.1
2019-03-01T16:51:19.951Z,3.1
2019-03-01T16:54:16.819Z,3.1
2019-03-01T16:57:15.936Z,3.1
2019-03-01T17:00:19.635Z,3.1
2019-03-01T17:03:18.646Z,3.1
2019-03-01T17:06:14.982Z,3.1
2019-03-01T17:09:16.926Z,3.1
2019-03-01T17:12:17.790Z,3.1
2019-03-01T17:15:14.951Z,3.1
2019-03-01T17:18:15.017Z,3.1
2019-03-01T17:21:16.923Z,3.1
2019-03-01T17:24:16.587Z,3.1
2019-03-01T17:27:14.757Z,3.1
2019-03-01T17:30:15.363Z,3.1
2019-03-01T17:33:14.739Z,3.1
2019-03-01T17:36:18.340Z,3.1
2019-03-01T17:39:21.133Z,3.1
2019-03-01T17:42:21.874Z,3.1
2019-03-01T17:45:22.592Z,3.1
2019-03-01T17:48:14.640Z,3.1
2019-03-01T17:51:14.593Z,3.1
2019-03-01T17:54:14.580Z,3.1
2019-03-01T17:57:14.543Z,3.1
2019-03-01T18:00:14.868Z,3
2019-03-01T18:03:14.649Z,3
2019-03-01T18:06:18.269Z,3
2019-03-01T18:09:17.274Z,3
2019-03-01T18:12:21.546Z,3
2019-03-01T18:15:14.652Z,3
2019-03-01T18:18:14.665Z,3
2019-03-01T18:21:14.723Z,3
2019-03-01T18:24:15.539Z,3
2019-03-01T18:27:19.026Z,3
2019-03-01T18:30:21.299Z,3
2019-03-01T18:33:23.117Z,3
2019-03-01T18:36:14.628Z,3
2019-03-01T18:39:14.579Z,3
2019-03-01T18:42:14.490Z,3
2019-03-01T18:45:14.648Z,3
2019-03-01T18:48:14.587Z,3
2019-03-01T18:51:14.442Z,3
2019-03-01T18:54:14.675Z,3
2019-03-01T18:57:14.523Z,3
2019-03-01T19:00:14.761Z,3.1
2019-03-01T19:03:14.642Z,3.1
2019-03-01T19:06:17.483Z,3.1
2019-03-01T19:09:17.787Z,3.1
2019-03-01T19:12:14.707Z,3.1
2019-03-01T19:15:16.695Z,3.1
2019-03-01T19:18:18.061Z,3.1
2019-03-01T19:21:18.502Z,3.1
2019-03-01T19:24:14.643Z,3.1
2019-03-01T19:27:16.014Z,3.1
2019-03-01T19:30:14.738Z,3.1
2019-03-01T19:33:14.650Z,3.1
2019-03-01T19:36:14.441Z,3.1
2019-03-01T19:39:14.464Z,3.1
2019-03-01T19:42:14.492Z,3.1
2019-03-01T19:45:14.573Z,3.1
2019-03-01T19:48:14.805Z,3.1
2019-03-01T19:51:14.478Z,3.1
2019-03-01T19:54:14.436Z,3.1
2019-03-01T19:57:14.639Z,3.1
2019-03-01T20:00:14.696Z,3.2
2019-03-01T20:03:14.650Z,3.2
2019-03-01T20:06:14.674Z,3.2
2019-03-01T20:09:14.698Z,3.2
2019-03-01T20:12:14.560Z,3.2
2019-03-01T20:15:14.629Z,3.2
2019-03-01T20:18:14.558Z,3.2
2019-03-01T20:21:14.581Z,3.2
2019-03-01T20:24:14.540Z,3.2
2019-03-01T20:27:14.488Z,3.2
2019-03-01T20:30:14.510Z,3.2
2019-03-01T20:33:14.446Z,3.2
2019-03-01T20:36:18.948Z,3.2
2019-03-01T20:39:16.803Z,3.2
2019-03-01T20:42:24.673Z,3.2
2019-03-01T20:45:14.602Z,3.2
2019-03-01T20:48:14.545Z,3.2
2019-03-01T20:51:14.664Z,3.2
2019-03-01T20:54:14.603Z,3.2
2019-03-01T20:57:14.555Z,3.2
2019-03-01T21:00:14.591Z,3.2
2019-03-01T21:03:14.507Z,3.2
2019-03-01T21:06:14.526Z,3.2
2019-03-01T21:09:14.550Z,3.2
2019-03-01T21:12:14.495Z,3.2
2019-03-01T21:15:14.470Z,3.2
2019-03-01T21:18:14.461Z,3.2
2019-03-01T21:21:14.508Z,3.2
2019-03-01T21:24:14.394Z,3.2
2019-03-01T21:27:14.477Z,3.2
2019-03-01T21:30:14.483Z,3.2
2019-03-01T21:33:14.758Z,3.2
2019-03-01T21:36:14.710Z,3.2
2019-03-01T21:39:14.568Z,3.2
2019-03-01T21:42:21.558Z,3.2
2019-03-01T21:45:22.877Z,3.2
2019-03-01T21:48:14.679Z,3.2
2019-03-01T21:51:20.267Z,3.2
2019-03-01T21:54:17.849Z,3.2
2019-03-01T21:57:14.553Z,3.2
2019-03-01T22:00:14.614Z,3.2
2019-03-01T22:03:14.868Z,3.2
2019-03-01T22:06:14.600Z,3.2
2019-03-01T22:09:14.592Z,3.2
2019-03-01T22:12:14.618Z,3.2
2019-03-01T22:15:14.543Z,3.2
2019-03-01T22:18:14.385Z,3.2
2019-03-01T22:21:23.717Z,3.2
2019-03-01T22:24:14.573Z,3.2
2019-03-01T22:27:14.702Z,3.2
2019-03-01T22:30:14.385Z,3.2
2019-03-01T22:33:22.639Z,3.2
2019-03-01T22:36:19.303Z,3.2
2019-03-01T22:39:17.785Z,3.2
2019-03-01T22:42:15.442Z,3.2
2019-03-01T22:45:14.886Z,3.2
2019-03-01T22:48:14.617Z,3.2
2019-03-01T22:51:19.085Z,3.2
2019-03-01T22:54:19.284Z,3.2
2019-03-01T22:57:14.687Z,3.2
2019-03-01T23:00:14.688Z,3.3
2019-03-01T23:03:20.613Z,3.3
2019-03-01T23:06:15.831Z,3.3
2019-03-01T23:09:14.613Z,3.3
2019-03-01T23:12:15.160Z,3.3
2019-03-01T23:15:14.686Z,3.3
2019-03-01T23:18:14.694Z,3.3
2019-03-01T23:21:14.585Z,3.3
2019-03-01T23:24:14.665Z,3.3
2019-03-01T23:27:14.544Z,3.3
2019-03-01T23:30:14.544Z,3.3
2019-03-01T23:33:14.498Z,3.3
2019-03-01T23:36:14.497Z,3.3
2019-03-01T23:39:14.479Z,3.3
2019-03-01T23:42:22.275Z,3.3
2019-03-01T23:45:18.937Z,3.3
2019-03-01T23:48:14.881Z,3.3
2019-03-01T23:51:14.495Z,3.3
2019-03-01T23:54:14.539Z,3.3
2019-03-01T23:57:14.433Z,3.3
